Terminal Aerodrome Forecast
Issued by NWS

Home | Current Version | Previous Version | Text Only | Print | Product List | Glossary On
Versions: 1 2 3 4 5 6 7 8 9 10 11 12 13 14 15 16 17 18 19
000
FTUS43 KLSX 230800 AAB
TAFUIN
TAF AMD
KUIN 230853Z 2309/2406 01010KT P6SM SKC
     FM231500 03011KT P6SM SCT040
     FM240100 06004KT P6SM SKC=

USA.gov is the U.S. government's official web portal to all federal, state and local government web resources and services.